| time (UTC) | temp C | wind direction | speed KPH | gust KPH | rain 1hr cm | rain 24hr cm | rain mn cm | humidity % | barometer mb |
| 20260506194503 | 15 | 229 | 0.0 | 4.8 | 0.10 | 0.28 | 0.28 | 94 | 1005.3 |
| 20260506193001 | 15 | 177 | 0.0 | 3.2 | 0.08 | 0.25 | 0.25 | 93 | 1005.4 |
| 20260506191600 | 15 | 130 | 0.0 | 4.8 | 0.10 | 0.25 | 0.25 | 93 | 1005.4 |
| 20260506190100 | 15 | 86 | 0.0 | 4.8 | 0.08 | 0.23 | 0.23 | 92 | 1005.5 |
| 20260506184617 | 16 | 84 | 0.0 | 3.2 | 0.05 | 0.18 | 0.18 | 92 | 1005.7 |
| 20260506183059 | 16 | 141 | 0.0 | 1.6 | 0.10 | 0.18 | 0.18 | 91 | 1005.6 |
| 20260506181558 | 16 | 193 | 0.0 | 3.2 | 0.13 | 0.15 | 0.15 | 90 | 1005.8 |
| 20260506180057 | 16 | 158 | 0.0 | 1.6 | 0.15 | 0.15 | 0.15 | 90 | 1005.5 |
| 20260506174554 | 17 | 158 | 0.0 | 8.0 | 0.13 | 0.13 | 0.13 | 89 | 1005.6 |
| 20260506173104 | 17 | 173 | 0.0 | 1.6 | 0.08 | 0.08 | 0.08 | 87 | 1006.1 |
| 20260506171553 | 18 | 179 | 0.0 | 1.6 | 0.03 | 0.03 | 0.03 | 82 | 1006.5 |
| 20260506170058 | 18 | 167 | 0.0 | 4.8 | 0.00 | 0.00 | 0.00 | 79 | 1006.4 |
| 20260506164608 | 19 | 82 | 0.0 | 0.0 | 0.00 | 0.00 | 0.00 | 79 | 1006.4 |
| 20260506163050 | 19 | 82 | 0.0 | 0.0 | 0.00 | 0.00 | 0.00 | 77 | 1006.4 |
| 20260506161546 | 19 | 179 | 0.0 | 4.8 | 0.00 | 0.00 | 0.00 | 77 | 1006.6 |
| 20260506160049 | 18 | 73 | 0.0 | 1.6 | 0.00 | 0.00 | 0.00 | 77 | 1006.9 |
| 20260506154549 | 18 | 167 | 0.0 | 1.6 | 0.00 | 0.00 | 0.00 | 78 | 1007.2 |
| 20260506153038 | 18 | 203 | 0.0 | 3.2 | 0.00 | 0.00 | 0.00 | 78 | 1007.4 |
| 20260506151536 | 18 | 200 | 0.0 | 4.8 | 0.00 | 0.00 | 0.00 | 78 | 1007.7 |
| 20260506150036 | 18 | 205 | 0.0 | 4.8 | 0.00 | 0.00 | 0.00 | 79 | 1007.8 |
| 20260506144533 | 17 | 211 | 0.0 | 1.6 | 0.00 | 0.00 | 0.00 | 79 | 1007.8 |
| 20260506143036 | 17 | 92 | 0.0 | 4.8 | 0.00 | 0.00 | 0.00 | 79 | 1007.9 |
| 20260506141537 | 17 | 160 | 0.0 | 3.2 | 0.00 | 0.00 | 0.00 | 79 | 1007.7 |
| 20260506140031 | 17 | 210 | 0.0 | 3.2 | 0.00 | 0.00 | 0.00 | 79 | 1008.0 |
| 20260506134529 | 17 | 146 | 0.0 | 1.6 | 0.00 | 0.00 | 0.00 | 80 | 1007.5 |
| 20260506133027 | 17 | 44 | 0.0 | 1.6 | 0.00 | 0.00 | 0.00 | 81 | 1007.7 |
| 20260506131532 | 17 | 119 | 0.0 | 1.6 | 0.00 | 0.00 | 0.00 | 82 | 1007.7 |
| 20260506130023 | 16 | 155 | 0.0 | 3.2 | 0.00 | 0.00 | 0.00 | 82 | 1008.0 |
| 20260506124526 | 16 | 176 | 0.0 | 3.2 | 0.00 | 0.00 | 0.00 | 83 | 1008.1 |
| 20260506123024 | 16 | 169 | 0.0 | 1.6 | 0.00 | 0.00 | 0.00 | 83 | 1008.2 |
| 20260506121521 | 15 | 134 | 0.0 | 1.6 | 0.00 | 0.00 | 0.00 | 84 | 1008.4 |
| 20260506120034 | 15 | 152 | 0.0 | 1.6 | 0.00 | 0.00 | 0.00 | 84 | 1008.4 |
| 20260506114524 | 15 | 165 | 0.0 | 1.6 | 0.00 | 0.00 | 0.00 | 85 | 1008.3 |
| 20260506113019 | 15 | 83 | 0.0 | 0.0 | 0.00 | 0.00 | 0.00 | 85 | 1008.4 |
| 20260506111518 | 15 | 87 | 0.0 | 1.6 | 0.00 | 0.00 | 0.00 | 86 | 1008.1 |
| 20260506110019 | 14 | 135 | 0.0 | 1.6 | 0.00 | 0.00 | 0.00 | 87 | 1008.5 |
| 20260506104516 | 14 | 107 | 0.0 | 0.0 | 0.00 | 0.00 | 0.00 | 87 | 1008.6 |
| 20260506103025 | 14 | 103 | 0.0 | 3.2 | 0.00 | 0.00 | 0.00 | 87 | 1008.5 |
| 20260506101515 | 14 | 94 | 0.0 | 0.0 | 0.00 | 0.00 | 0.00 | 87 | 1008.0 |
| 20260506100013 | 14 | 160 | 0.0 | 1.6 | 0.00 | 0.00 | 0.00 | 87 | 1008.2 |
| 20260506094526 | 14 | 146 | 0.0 | 1.6 | 0.00 | 0.00 | 0.00 | 86 | 1007.9 |
| 20260506093016 | 14 | 205 | 0.0 | 1.6 | 0.00 | 0.00 | 0.00 | 85 | 1008.2 |
| 20260506091510 | 14 | 188 | 0.0 | 1.6 | 0.00 | 0.00 | 0.00 | 85 | 1008.0 |
| 20260506090009 | 14 | 208 | 0.0 | 3.2 | 0.00 | 0.00 | 0.00 | 84 | 1008.1 |
| 20260506084509 | 15 | 131 | 0.0 | 1.6 | 0.00 | 0.00 | 0.00 | 84 | 1008.1 |
| 20260506083009 | 15 | 169 | 0.0 | 1.6 | 0.00 | 0.00 | 0.00 | 84 | 1008.3 |
| 20260506081508 | 15 | 186 | 0.0 | 1.6 | 0.00 | 0.00 | 0.00 | 84 | 1008.1 |
| 20260506073006 | 13 | 73 | 0.0 | 0.0 | 0.00 | 0.00 | 0.00 | 84 | 1008.1 |
| 20260506071506 | 14 | 74 | 0.0 | 0.0 | 0.00 | 0.00 | 0.00 | 83 | 1008.1 |
| 20260506061556 | 15 | 73 | 0.0 | 0.0 | 0.00 | 0.00 | 0.00 | 78 | 1007.9 |
| 20260506044553 | 16 | 73 | 0.0 | 0.0 | 0.00 | 0.00 | 0.00 | 74 | 1008.3 |
| 20260506043039 | 16 | 74 | 0.0 | 0.0 | 0.00 | 0.00 | 0.00 | 73 | 1008.3 |
| 20260506041548 | 16 | 84 | 0.0 | 1.6 | 0.00 | 0.00 | 0.00 | 72 | 1008.2 |
| 20260506040041 | 17 | 172 | 0.0 | 1.6 | 0.00 | 0.00 | 0.00 | 71 | 1008.3 |
| 20260506034535 | 17 | 116 | 0.0 | 0.0 | 0.00 | 0.00 | 0.00 | 71 | 1008.3 |
| 20260506033034 | 17 | 119 | 0.0 | 1.6 | 0.00 | 0.00 | 0.00 | 70 | 1008.3 |
| 20260506031546 | 17 | 169 | 0.0 | 3.2 | 0.00 | 0.00 | 0.00 | 68 | 1008.2 |
| 20260506030038 | 17 | 201 | 0.0 | 1.6 | 0.00 | 0.00 | 0.00 | 68 | 1008.2 |
| 20260506024536 | 17 | 186 | 0.0 | 3.2 | 0.00 | 0.00 | 0.00 | 67 | 1008.2 |
| 20260506023036 | 18 | 65 | 0.0 | 3.2 | 0.00 | 0.00 | 0.00 | 66 | 1008.2 |
| 20260506021532 | 18 | 86 | 0.0 | 1.6 | 0.00 | 0.00 | 0.00 | 66 | 1008.1 |
| 20260506020030 | 18 | 78 | 0.0 | 3.2 | 0.00 | 0.00 | 0.00 | 66 | 1008.0 |
| 20260506014530 | 18 | 195 | 0.0 | 1.6 | 0.00 | 0.00 | 0.00 | 65 | 1008.0 |
| 20260506013028 | 19 | 130 | 0.0 | 1.6 | 0.00 | 0.00 | 0.00 | 64 | 1007.8 |
| 20260506011528 | 20 | 158 | 0.0 | 4.8 | 0.00 | 0.00 | 0.00 | 62 | 1007.7 |
| 20260506010026 | 20 | 120 | 0.0 | 3.2 | 0.00 | 0.00 | 0.00 | 61 | 1007.5 |
| 20260506004529 | 20 | 139 | 0.0 | 1.6 | 0.00 | 0.00 | 0.00 | 60 | 1007.5 |
| 20260506003024 | 21 | 164 | 0.0 | 1.6 | 0.00 | 0.00 | 0.00 | 60 | 1007.0 |
| 20260506001524 | 21 | 145 | 0.0 | 1.6 | 0.00 | 0.00 | 0.00 | 59 | 1006.8 |
| 20260506000022 | 21 | 8 | 0.0 | 4.8 | 0.00 | 0.00 | 0.00 | 58 | 1006.6 |
| 20260505234546 | 21 | 105 | 0.0 | 9.7 | 0.00 | 0.00 | 0.00 | 56 | 1006.1 |
| 20260505233022 | 22 | 222 | 0.0 | 3.2 | 0.00 | 0.00 | 0.00 | 55 | 1005.8 |
| 20260505231521 | 22 | 86 | 1.6 | 9.7 | 0.00 | 0.00 | 0.00 | 54 | 1005.5 |
| 20260505230019 | 23 | 65 | 0.0 | 6.4 | 0.00 | 0.00 | 0.00 | 52 | 1005.2 |
| 20260505224527 | 23 | 195 | 0.0 | 8.0 | 0.00 | 0.00 | 0.00 | 50 | 1005.2 |
| 20260505223018 | 24 | 167 | 0.0 | 9.7 | 0.00 | 0.00 | 0.00 | 49 | 1005.0 |
| 20260505221517 | 25 | 205 | 1.6 | 8.0 | 0.00 | 0.00 | 0.00 | 47 | 1004.8 |
| 20260505220015 | 25 | 82 | 1.6 | 8.0 | 0.00 | 0.00 | 0.00 | 46 | 1004.6 |
| 20260505214519 | 26 | 195 | 3.2 | 14.5 | 0.00 | 0.00 | 0.00 | 45 | 1004.5 |
| 20260505213014 | 26 | 149 | 1.6 | 11.3 | 0.00 | 0.00 | 0.00 | 46 | 1004.1 |
| 20260505211513 | 26 | 203 | 0.0 | 9.7 | 0.00 | 0.00 | 0.00 | 46 | 1004.1 |
| 20260505210014 | 26 | 119 | 0.0 | 9.7 | 0.00 | 0.00 | 0.00 | 46 | 1004.2 |
| 20260505204522 | 26 | 99 | 1.6 | 11.3 | 0.00 | 0.00 | 0.00 | 45 | 1004.0 |
| 20260505203011 | 26 | 169 | 1.6 | 9.7 | 0.00 | 0.00 | 0.00 | 43 | 1003.9 |
| 20260505201510 | 27 | 88 | 0.0 | 11.3 | 0.00 | 0.00 | 0.00 | 43 | 1004.0 |
| 20260505200020 | 26 | 184 | 1.6 | 11.3 | 0.00 | 0.00 | 0.00 | 44 | 1004.1 |